Osage Beach, Missouri
Current Conditions -  °F | °C
As of 7:55 PM on Friday 24 Oct 2014 (Local Time) from KAIZ Reporting Station
Clear Clear  
Wind Chill: 66°   Ceiling: Unl
Heat Index: 66°   Visibility: 10mi
Dew Point: 57°   Wind: 6mph
Humidity: 73%   Direction: 180°S
Pressure: 30.02"   Gusts: NA
Location:  38.15°N, 92.62°W
Report Text: KAIZ 250055Z AUTO 18005KT 10SM CLR 19/14 A3002 RMK AO1
Loading
Personal Weather Stations






























Interactive Weather Map
Tropical Storm Tracking
New forecast layout! Learn more

10-Day Weather Forecast

Advertisements
Track Severe Weather on mobile